Time;durP1;ratioP1;P1;durP2;ratioP2;P2;SDS_P1;SDS_P2;PMS_P1;PMS_P2;Temp;Humidity;BMP_temperature;BMP_pressure;BME280_temperature;BME280_humidity;BME280_pressure;Samples;Min_cycle;Max_cycle;Signal;HPM_P1;HPM_P2
2023/01/30 00:00:53;;;;;;;;;;;;;;;-3.46;100.00;97413.19;5029243;28;19918;-67
2023/01/30 00:03:18;;;;;;;;;;;;;;;-3.42;100.00;97402.78;5021095;28;20016;-68
2023/01/30 00:05:43;;;;;;;;;;;;;;;-3.52;100.00;97403.50;5025273;28;20063;-67
2023/01/30 00:08:09;;;;;;;;;;;;;;;-3.56;100.00;97389.03;5021461;28;19967;-68
2023/01/30 00:10:34;;;;;;;;;;;;;;;-3.62;100.00;97389.25;5025060;28;19917;-67
2023/01/30 00:12:59;;;;;;;;;;;;;;;-3.58;100.00;97385.81;5025489;28;19924;-67
2023/01/30 00:15:24;;;;;;;;;;;;;;;-3.65;100.00;97386.03;5020008;28;19921;-68
2023/01/30 00:17:50;;;;;;;;;;;;;;;-3.71;100.00;97383.56;5025897;28;20435;-67
2023/01/30 00:20:15;;;;;;;;;;;;;;;-3.75;100.00;97380.59;5020267;28;19917;-67
2023/01/30 00:22:40;;;;;;;;;;;;;;;-3.80;100.00;97380.56;5025073;28;19924;-67
2023/01/30 00:25:06;;;;;;;;;;;;;;;-3.85;100.00;97372.50;5020527;28;20297;-69
2023/01/30 00:27:31;;;;;;;;;;;;;;;-3.91;100.00;97368.16;5024459;28;19917;-68
2023/01/30 00:29:57;;;;;;;;;;;;;;;-4.03;100.00;97366.47;5024174;28;20325;-68
2023/01/30 00:32:25;;;;;;;;;;;;;;;-3.96;100.00;97365.44;5020220;28;19936;-69
2023/01/30 00:34:50;;;;;;;;;;;;;;;-4.03;100.00;97363.00;5022845;28;19921;-68
2023/01/30 00:37:15;;;;;;;;;;;;;;;-3.90;100.00;97365.25;5019634;28;20397;-68
2023/01/30 00:39:41;;;;;;;;;;;;;;;-4.00;100.00;97367.03;5024564;28;19917;-68
2023/01/30 00:47:34;;;;;;;;;;;;;;;-4.08;100.00;97365.63;5023947;28;19944;-67
2023/01/30 00:49:59;;;;;;;;;;;;;;;-4.13;100.00;97358.38;5024242;28;20271;-68
2023/01/30 00:52:24;;;;;;;;;;;;;;;-3.93;100.00;97349.69;5020143;28;19971;-68
2023/01/30 00:54:51;;;;;;;;;;;;;;;-3.83;100.00;97343.63;5024901;28;19926;-68
2023/01/30 00:57:16;;;;;;;;;;;;;;;-3.62;100.00;97341.03;5018650;28;19928;-68
2023/01/30 00:59:41;;;;;;;;;;;;;;;-3.57;100.00;97335.72;5024229;28;19917;-67
2023/01/30 01:02:07;;;;;;;;;;;;;;;-3.65;100.00;97343.19;5020047;28;19924;-69
2023/01/30 01:04:41;;;;;;;;;;;;;;;-3.76;100.00;97346.03;5039987;28;19917;-68
2023/01/30 01:07:07;;;;;;;;;;;;;;;-3.82;100.00;97352.44;5020919;28;19979;-68
2023/01/30 01:09:32;;;;;;;;;;;;;;;-3.70;100.00;97342.34;5048207;28;19921;-68
2023/01/30 01:11:57;;;;;;;;;;;;;;;-3.69;100.00;97336.75;5031904;28;19924;-67
2023/01/30 01:14:23;;;;;;;;;;;;;;;-3.79;100.00;97333.19;5026573;28;20735;-68
2023/01/30 01:16:48;;;;;;;;;;;;;;;-3.70;100.00;97340.47;5032813;28;19917;-67
2023/01/30 01:19:13;;;;;;;;;;;;;;;-3.50;100.00;97334.41;5023863;28;20359;-69
2023/01/30 01:21:38;;;;;;;;;;;;;;;-3.55;100.00;97326.34;5025911;28;20002;-67
2023/01/30 01:24:04;;;;;;;;;;;;;;;-3.55;100.00;97333.59;5022990;28;19924;-68
2023/01/30 01:26:29;;;;;;;;;;;;;;;-3.43;100.00;97328.84;5023546;28;20353;-68
2023/01/30 01:28:55;;;;;;;;;;;;;;;-3.40;100.00;97328.31;5024122;28;19921;-66
2023/01/30 01:31:22;;;;;;;;;;;;;;;-3.29;100.00;97326.50;5018648;28;20263;-68
2023/01/30 01:33:48;;;;;;;;;;;;;;;-3.30;100.00;97325.66;5047899;28;19920;-70
2023/01/30 01:36:13;;;;;;;;;;;;;;;-3.40;100.00;97320.28;5028678;28;19967;-68
2023/01/30 01:38:40;;;;;;;;;;;;;;;-3.36;100.00;97323.25;5023897;28;19917;-68
2023/01/30 01:41:05;;;;;;;;;;;;;;;-3.37;100.00;97309.03;5018893;28;19918;-67
2023/01/30 01:43:33;;;;;;;;;;;;;;;-3.33;100.00;97306.63;5022358;28;19917;-67
2023/01/30 01:46:01;;;;;;;;;;;;;;;-3.34;100.00;97313.06;5023191;28;19975;-68
2023/01/30 01:48:26;;;;;;;;;;;;;;;-3.40;100.00;97306.06;5034258;28;19921;-68
2023/01/30 01:51:01;;;;;;;;;;;;;;;-3.45;100.00;97301.50;5038581;28;19917;-66
2023/01/30 01:53:30;;;;;;;;;;;;;;;-3.46;100.00;97300.72;5018225;28;19917;-67
2023/01/30 01:55:57;;;;;;;;;;;;;;;-3.57;100.00;97300.91;5021550;28;19925;-68
2023/01/30 01:58:32;;;;;;;;;;;;;;;-3.64;100.00;97303.81;5016694;28;20370;-69
2023/01/30 02:00:58;;;;;;;;;;;;;;;-3.69;100.00;97303.78;5023759;28;19975;-68
2023/01/30 02:03:25;;;;;;;;;;;;;;;-3.77;100.00;97312.31;5018917;28;20273;-68
2023/01/30 02:05:52;;;;;;;;;;;;;;;-3.78;100.00;97316.88;5022864;28;19925;-69
2023/01/30 02:08:17;;;;;;;;;;;;;;;-3.77;100.00;97317.69;5018829;28;19968;-68
2023/01/30 02:10:46;;;;;;;;;;;;;;;-3.76;100.00;97308.56;5020502;28;19956;-68
2023/01/30 02:13:11;;;;;;;;;;;;;;;-3.58;100.00;97310.00;5017862;28;19979;-67
2023/01/30 02:15:36;;;;;;;;;;;;;;;-3.65;100.00;97308.38;5022619;28;20378;-68
2023/01/30 02:18:02;;;;;;;;;;;;;;;-3.72;100.00;97321.19;5022790;28;20409;-68
2023/01/30 02:20:46;;;;;;;;;;;;;;;-3.87;100.00;97321.09;5019874;28;19921;-67
2023/01/30 02:23:11;;;;;;;;;;;;;;;-3.92;100.00;97316.53;5033304;28;20388;-68
2023/01/30 02:25:52;;;;;;;;;;;;;;;-3.70;100.00;97304.88;5022537;28;20012;-68
2023/01/30 02:28:23;;;;;;;;;;;;;;;-3.54;100.00;97298.53;5018237;28;20006;-68
2023/01/30 02:30:59;;;;;;;;;;;;;;;-3.51;100.00;97295.34;5022438;28;19917;-68
2023/01/30 02:33:57;;;;;;;;;;;;;;;-3.59;100.00;97290.47;5017330;28;20058;-68
2023/01/30 02:36:22;;;;;;;;;;;;;;;-3.71;100.00;97305.91;4987544;28;19929;-68
2023/01/30 02:39:06;;;;;;;;;;;;;;;-3.81;100.00;97316.59;5022928;28;19923;-69
2023/01/30 02:41:47;;;;;;;;;;;;;;;-3.72;100.00;97315.84;5022253;28;20341;-68
2023/01/30 02:44:21;;;;;;;;;;;;;;;-3.80;100.00;97310.16;5033029;28;20394;-68
2023/01/30 02:46:56;;;;;;;;;;;;;;;-3.89;100.00;97326.72;5021793;28;19921;-67
2023/01/30 02:49:27;;;;;;;;;;;;;;;-3.86;100.00;97331.53;5016777;28;22217;-67
2023/01/30 02:51:53;;;;;;;;;;;;;;;-3.93;100.00;97341.66;5022318;28;20331;-67
2023/01/30 02:54:18;;;;;;;;;;;;;;;-3.91;100.00;97344.06;5017601;28;19917;-67
2023/01/30 02:56:44;;;;;;;;;;;;;;;-4.06;100.00;97345.59;5022278;28;20354;-67
2023/01/30 02:59:09;;;;;;;;;;;;;;;-4.17;100.00;97351.94;5017147;28;19956;-67
2023/01/30 03:01:41;;;;;;;;;;;;;;;-4.22;100.00;97352.69;5022587;28;20050;-68
2023/01/30 03:04:17;;;;;;;;;;;;;;;-4.05;100.00;97354.44;5017923;28;20271;-68
2023/01/30 03:06:57;;;;;;;;;;;;;;;-4.10;100.00;97351.72;5021721;28;19971;-68
2023/01/30 03:09:32;;;;;;;;;;;;;;;-4.10;100.00;97344.50;5017105;28;20476;-67
2023/01/30 03:11:57;;;;;;;;;;;;;;;-4.12;100.00;97343.16;5021828;28;19983;-67
2023/01/30 03:14:28;;;;;;;;;;;;;;;-4.16;100.00;97347.38;5017211;28;20420;-67
2023/01/30 03:16:55;;;;;;;;;;;;;;;-4.32;100.00;97351.78;5021132;28;19921;-69
2023/01/30 03:19:21;;;;;;;;;;;;;;;-4.39;100.00;97364.56;5017621;28;20298;-67
2023/01/30 03:21:47;;;;;;;;;;;;;;;-4.42;100.00;97364.00;5021988;28;19926;-68
2023/01/30 03:24:12;;;;;;;;;;;;;;;-4.36;100.00;97369.41;5017137;28;19921;-67
2023/01/30 03:26:47;;;;;;;;;;;;;;;-4.13;100.00;97381.66;5021447;28;20011;-67
2023/01/30 03:29:12;;;;;;;;;;;;;;;-4.28;100.00;97390.34;5017747;28;19975;-67
2023/01/30 03:31:38;;;;;;;;;;;;;;;-4.38;100.00;97392.94;5021156;28;19972;-66
2023/01/30 03:34:03;;;;;;;;;;;;;;;-4.23;100.00;97380.50;5019839;28;19921;-66
2023/01/30 03:36:28;;;;;;;;;;;;;;;-3.99;100.00;97358.75;5019789;28;19966;-67
2023/01/30 03:38:54;;;;;;;;;;;;;;;-3.60;100.00;97352.31;5022476;28;19992;-67
2023/01/30 03:41:19;;;;;;;;;;;;;;;-3.57;100.00;97355.25;5028800;28;19901;-68
2023/01/30 03:43:44;;;;;;;;;;;;;;;-3.68;100.00;97358.97;5042919;28;20401;-68
2023/01/30 03:46:09;;;;;;;;;;;;;;;-3.57;100.00;97370.53;5033486;28;19953;-67
2023/01/30 03:48:35;;;;;;;;;;;;;;;-3.58;100.00;97374.25;5034819;28;20027;-68
2023/01/30 03:51:00;;;;;;;;;;;;;;;-3.56;100.00;97367.59;5023046;28;19924;-67
2023/01/30 03:53:25;;;;;;;;;;;;;;;-3.36;100.00;97364.22;5016961;28;19971;-67
2023/01/30 03:55:51;;;;;;;;;;;;;;;-3.27;100.00;97359.97;5027298;28;20309;-68
2023/01/30 03:58:16;;;;;;;;;;;;;;;-3.15;100.00;97350.91;5023671;28;19917;-68
2023/01/30 04:00:41;;;;;;;;;;;;;;;-3.20;100.00;97372.34;5021226;28;19917;-68
2023/01/30 04:03:07;;;;;;;;;;;;;;;-3.03;100.00;97372.13;5021085;28;20362;-69
2023/01/30 04:05:32;;;;;;;;;;;;;;;-2.81;100.00;97361.22;5023425;28;20024;-68
2023/01/30 04:07:57;;;;;;;;;;;;;;;-2.75;100.00;97369.03;5022368;28;19917;-68
2023/01/30 04:10:23;;;;;;;;;;;;;;;-2.57;100.00;97342.78;5017812;28;20632;-67
2023/01/30 04:12:49;;;;;;;;;;;;;;;-2.48;100.00;97324.25;5020969;28;19921;-68
2023/01/30 04:15:14;;;;;;;;;;;;;;;-2.64;100.00;97379.78;5016083;28;19944;-68
2023/01/30 04:17:41;;;;;;;;;;;;;;;-2.70;100.00;97392.38;5021623;28;19921;-69
2023/01/30 04:20:07;;;;;;;;;;;;;;;-2.54;100.00;97379.78;5016645;28;19917;-67
2023/01/30 04:22:32;;;;;;;;;;;;;;;-2.63;100.00;97394.78;5021076;28;19923;-68
2023/01/30 04:24:57;;;;;;;;;;;;;;;-2.62;100.00;97391.84;5044675;28;19936;-68
2023/01/30 04:27:22;;;;;;;;;;;;;;;-2.66;100.00;97384.59;5024882;28;20205;-67
2023/01/30 04:29:48;;;;;;;;;;;;;;;-2.62;100.00;97393.72;5021170;28;20386;-67
2023/01/30 04:32:13;;;;;;;;;;;;;;;-2.57;100.00;97396.44;5017471;28;19921;-67
2023/01/30 04:34:38;;;;;;;;;;;;;;;-2.64;100.00;97394.00;5020840;28;19917;-67
2023/01/30 04:37:04;;;;;;;;;;;;;;;-2.59;100.00;97366.34;5020527;28;19947;-67
2023/01/30 04:39:29;;;;;;;;;;;;;;;-2.50;100.00;97357.53;5024856;28;19925;-68
2023/01/30 04:41:54;;;;;;;;;;;;;;;-2.57;100.00;97332.84;5023222;28;19917;-68
2023/01/30 04:44:20;;;;;;;;;;;;;;;-2.50;100.00;97313.81;5021344;28;20371;-68
2023/01/30 04:46:45;;;;;;;;;;;;;;;-2.44;100.00;97293.16;5024959;28;19917;-68
2023/01/30 04:49:10;;;;;;;;;;;;;;;-2.54;100.00;97283.22;5040533;28;19921;-69
2023/01/30 04:51:36;;;;;;;;;;;;;;;-2.54;100.00;97288.59;5070277;28;20267;-67
2023/01/30 04:54:01;;;;;;;;;;;;;;;-2.59;100.00;97285.91;5057095;28;20743;-66
2023/01/30 04:56:27;;;;;;;;;;;;;;;-2.59;100.00;97296.63;5052757;28;19932;-68
2023/01/30 04:58:52;;;;;;;;;;;;;;;-2.62;100.00;97307.91;5056547;28;20301;-67
2023/01/30 05:01:44;;;;;;;;;;;;;;;-2.70;100.00;97306.56;5019574;28;19917;-67
2023/01/30 05:04:09;;;;;;;;;;;;;;;-2.68;100.00;97301.75;5017955;28;20012;-67
2023/01/30 05:06:35;;;;;;;;;;;;;;;-2.45;100.00;97295.03;5024433;28;20004;-67
2023/01/30 05:09:01;;;;;;;;;;;;;;;-2.64;100.00;97312.75;5024145;28;19968;-66
2023/01/30 05:11:27;;;;;;;;;;;;;;;-2.65;100.00;97325.31;5019970;28;19967;-67
2023/01/30 05:13:53;;;;;;;;;;;;;;;-2.59;100.00;97331.50;5024388;28;19924;-66
2023/01/30 05:16:18;;;;;;;;;;;;;;;-2.64;100.00;97324.25;5020392;28;20275;-66
2023/01/30 05:18:44;;;;;;;;;;;;;;;-2.70;100.00;97312.72;5025110;28;19997;-66
2023/01/30 05:21:15;;;;;;;;;;;;;;;-2.70;100.00;97315.41;5019787;28;19917;-66
2023/01/30 05:23:41;;;;;;;;;;;;;;;-2.78;100.00;97307.06;5024514;28;19925;-65
2023/01/30 05:26:06;;;;;;;;;;;;;;;-2.87;100.00;97317.50;5019766;28;19917;-65
2023/01/30 05:28:32;;;;;;;;;;;;;;;-2.71;100.00;97313.78;5024659;28;20397;-66
2023/01/30 05:31:04;;;;;;;;;;;;;;;-2.71;100.00;97305.75;5024492;28;19966;-65
2023/01/30 05:33:31;;;;;;;;;;;;;;;-2.66;100.00;97313.00;5023780;28;19944;-67
2023/01/30 05:35:57;;;;;;;;;;;;;;;-2.73;100.00;97294.47;5038746;28;19928;-65
2023/01/30 05:38:22;;;;;;;;;;;;;;;-2.77;100.00;97296.09;5019052;28;20372;-66
2023/01/30 05:40:56;;;;;;;;;;;;;;;-2.79;100.00;97295.56;5023609;28;19921;-67
2023/01/30 05:43:21;;;;;;;;;;;;;;;-2.75;100.00;97296.63;5020207;28;20322;-66
2023/01/30 05:45:51;;;;;;;;;;;;;;;-2.73;100.00;97283.75;5023321;28;19921;-65
2023/01/30 05:48:16;;;;;;;;;;;;;;;-2.74;100.00;97275.97;5019347;28;19921;-66
2023/01/30 05:50:41;;;;;;;;;;;;;;;-2.70;100.00;97296.63;5023906;28;20378;-66
2023/01/30 05:53:07;;;;;;;;;;;;;;;-2.76;100.00;97296.88;5019097;28;20008;-66
2023/01/30 05:55:32;;;;;;;;;;;;;;;-2.80;100.00;97304.66;5022232;28;20032;-66
2023/01/30 05:57:58;;;;;;;;;;;;;;;-2.84;100.00;97295.53;5022900;28;19940;-66
2023/01/30 06:00:23;;;;;;;;;;;;;;;-2.89;100.00;97304.38;5018928;28;19996;-66
2023/01/30 06:02:48;;;;;;;;;;;;;;;-2.83;100.00;97299.03;5055873;28;20016;-66
2023/01/30 06:05:13;;;;;;;;;;;;;;;-2.86;100.00;97300.38;5019816;28;20001;-66
2023/01/30 06:07:39;;;;;;;;;;;;;;;-2.90;100.00;97307.31;5029685;28;19917;-66
2023/01/30 06:10:04;;;;;;;;;;;;;;;-2.91;100.00;97306.50;5034315;28;19948;-65
2023/01/30 06:12:30;;;;;;;;;;;;;;;-3.00;100.00;97292.00;5039543;28;19924;-65
2023/01/30 06:14:55;;;;;;;;;;;;;;;-2.95;100.00;97296.59;5033421;28;19980;-65
2023/01/30 06:17:20;;;;;;;;;;;;;;;-2.96;100.00;97286.94;5021094;28;19943;-66
2023/01/30 06:19:46;;;;;;;;;;;;;;;-3.02;100.00;97291.47;5022857;28;19928;-67
2023/01/30 06:22:11;;;;;;;;;;;;;;;-3.01;100.00;97285.03;5019279;28;20405;-67
2023/01/30 06:24:36;;;;;;;;;;;;;;;-2.97;100.00;97283.47;5024422;28;19931;-64
2023/01/30 06:27:02;;;;;;;;;;;;;;;-2.95;100.00;97294.72;5020441;28;20333;-65
2023/01/30 06:29:27;;;;;;;;;;;;;;;-2.99;100.00;97293.63;5019161;28;19925;-71
2023/01/30 06:31:52;;;;;;;;;;;;;;;-2.97;100.00;97283.47;5026801;28;19917;-71
2023/01/30 06:34:17;;;;;;;;;;;;;;;-3.15;100.00;97284.75;5019839;28;19960;-70
2023/01/30 06:36:43;;;;;;;;;;;;;;;-3.05;100.00;97285.84;5023017;28;19917;-70
2023/01/30 06:39:08;;;;;;;;;;;;;;;-3.10;100.00;97294.66;5017667;28;19935;-69
2023/01/30 06:41:33;;;;;;;;;;;;;;;-3.04;100.00;97301.66;5022613;28;19918;-68
2023/01/30 06:43:59;;;;;;;;;;;;;;;-3.03;100.00;97300.56;5054817;28;19999;-69
2023/01/30 06:46:24;;;;;;;;;;;;;;;-3.06;100.00;97311.84;5034461;28;19991;-68
2023/01/30 06:48:49;;;;;;;;;;;;;;;-3.13;100.00;97312.09;5055366;28;19921;-68
2023/01/30 06:51:15;;;;;;;;;;;;;;;-3.03;100.00;97307.81;5017380;28;20115;-68
2023/01/30 06:53:40;;;;;;;;;;;;;;;-2.86;100.00;97318.31;5021948;28;19942;-68
2023/01/30 06:56:05;;;;;;;;;;;;;;;-2.91;100.00;97344.03;5020591;28;20422;-68
2023/01/30 06:58:31;;;;;;;;;;;;;;;-2.74;100.00;97333.09;5053928;28;19940;-67
2023/01/30 07:00:56;;;;;;;;;;;;;;;-2.66;100.00;97339.03;5020708;28;20403;-67
2023/01/30 07:03:21;;;;;;;;;;;;;;;-2.82;100.00;97349.69;5020427;28;19972;-68
2023/01/30 07:05:47;;;;;;;;;;;;;;;-2.86;100.00;97340.56;5053439;28;19921;-67
2023/01/30 07:08:12;;;;;;;;;;;;;;;-2.86;100.00;97355.84;5017027;28;19924;-68
2023/01/30 07:10:39;;;;;;;;;;;;;;;-2.78;100.00;97366.06;5025271;28;19921;-67
2023/01/30 07:13:04;;;;;;;;;;;;;;;-2.67;100.00;97364.22;5021530;28;20420;-67
2023/01/30 07:15:29;;;;;;;;;;;;;;;-2.56;100.00;97371.19;5034541;28;19917;-67
2023/01/30 07:17:55;;;;;;;;;;;;;;;-2.58;100.00;97365.31;5024697;28;19951;-68
2023/01/30 07:20:20;;;;;;;;;;;;;;;-2.51;100.00;97360.50;5021893;28;19917;-68
2023/01/30 07:22:54;;;;;;;;;;;;;;;-2.66;100.00;97361.28;5026598;28;20012;-67
2023/01/30 07:25:21;;;;;;;;;;;;;;;-2.70;100.00;97369.03;5020539;28;20015;-68
2023/01/30 07:27:52;;;;;;;;;;;;;;;-2.61;100.00;97377.38;5025480;28;20337;-68
2023/01/30 07:30:18;;;;;;;;;;;;;;;-2.55;100.00;97383.56;5022691;28;20424;-68
2023/01/30 07:32:43;;;;;;;;;;;;;;;-2.43;100.00;97388.66;5027088;28;19925;-68
2023/01/30 07:35:08;;;;;;;;;;;;;;;-2.54;100.00;97390.50;5024931;28;19924;-67
2023/01/30 07:37:34;;;;;;;;;;;;;;;-2.62;100.00;97380.31;5034557;28;20457;-68
2023/01/30 07:39:59;;;;;;;;;;;;;;;-2.67;100.00;97393.72;5033119;28;19940;-67
2023/01/30 07:42:24;;;;;;;;;;;;;;;-2.65;100.00;97381.63;5035363;28;19943;-68
2023/01/30 07:44:50;;;;;;;;;;;;;;;-2.61;100.00;97381.91;5062820;28;19974;-66
2023/01/30 07:47:18;;;;;;;;;;;;;;;-2.68;100.00;97368.78;5057575;28;20370;-67
2023/01/30 07:49:43;;;;;;;;;;;;;;;-2.58;100.00;97365.31;5059927;28;19932;-67
2023/01/30 07:52:08;;;;;;;;;;;;;;;-2.51;100.00;97369.34;5052728;28;19921;-68
2023/01/30 07:54:34;;;;;;;;;;;;;;;-2.40;100.00;97361.31;5026179;28;20016;-67
2023/01/30 07:56:59;;;;;;;;;;;;;;;-2.31;100.00;97344.41;5025384;28;19917;-67
2023/01/30 07:59:25;;;;;;;;;;;;;;;-2.26;100.00;97334.78;5021436;28;20366;-67
2023/01/30 08:01:50;;;;;;;;;;;;;;;-2.39;100.00;97317.31;5025742;28;19921;-66
2023/01/30 08:04:15;;;;;;;;;;;;;;;-2.35;100.00;97321.06;5027818;28;19940;-67
2023/01/30 08:06:41;;;;;;;;;;;;;;;-2.11;100.00;97337.44;5041083;28;19917;-67
2023/01/30 08:09:06;;;;;;;;;;;;;;;-1.81;100.00;97349.25;5030435;28;19928;-68
2023/01/30 08:11:31;;;;;;;;;;;;;;;-1.78;100.00;97346.03;5032611;28;19948;-67
2023/01/30 08:13:57;;;;;;;;;;;;;;;-1.71;100.00;97359.16;5062102;28;20414;-68
2023/01/30 08:16:22;;;;;;;;;;;;;;;-1.38;100.00;97358.56;5024911;28;19921;-68
2023/01/30 08:18:47;;;;;;;;;;;;;;;-0.81;98.04;97364.53;5029636;28;19921;-67
2023/01/30 08:21:12;;;;;;;;;;;;;;;0.03;91.17;97371.00;5022830;28;20347;-67
2023/01/30 08:23:38;;;;;;;;;;;;;;;-0.14;91.81;97369.50;5030127;28;19927;-67
2023/01/30 08:26:03;;;;;;;;;;;;;;;0.09;90.92;97372.56;5028641;28;20282;-66
2023/01/30 08:28:29;;;;;;;;;;;;;;;0.12;91.85;97375.47;5033528;28;19925;-66
2023/01/30 08:30:55;;;;;;;;;;;;;;;0.36;88.04;97369.34;5042699;28;19971;-66
2023/01/30 08:33:21;;;;;;;;;;;;;;;0.52;86.64;97373.53;5036532;28;19941;-68
2023/01/30 08:35:46;;;;;;;;;;;;;;;0.09;88.00;97373.38;5040723;28;19917;-67
2023/01/30 08:38:12;;;;;;;;;;;;;;;-0.09;88.49;97376.72;5037751;28;19917;-68
2023/01/30 08:40:37;;;;;;;;;;;;;;;-0.17;88.22;97372.75;5038500;28;20012;-68
2023/01/30 08:43:03;;;;;;;;;;;;;;;0.23;88.25;97386.19;5035382;28;20432;-67
2023/01/30 08:45:29;;;;;;;;;;;;;;;0.25;85.35;97392.09;5031950;28;19928;-68
2023/01/30 08:48:02;;;;;;;;;;;;;;;-0.14;88.08;97395.63;5037699;28;20295;-68
2023/01/30 08:50:28;;;;;;;;;;;;;;;-0.24;87.58;97396.50;5034217;28;19932;-67
2023/01/30 08:52:53;;;;;;;;;;;;;;;-0.53;89.10;97386.44;5072937;28;19917;-68
2023/01/30 08:55:19;;;;;;;;;;;;;;;-0.60;90.62;97386.72;5031625;28;19938;-67
2023/01/30 08:57:45;;;;;;;;;;;;;;;-0.78;91.33;97377.41;5016076;28;20382;-68
2023/01/30 09:00:10;;;;;;;;;;;;;;;-0.71;91.10;97370.94;5026716;28;19917;-66
2023/01/30 09:02:36;;;;;;;;;;;;;;;-0.19;88.18;97372.22;5035028;28;19925;-66
2023/01/30 09:05:01;;;;;;;;;;;;;;;-0.22;88.27;97370.91;5027921;28;20071;-68
2023/01/30 09:07:27;;;;;;;;;;;;;;;-0.18;87.52;97378.41;5025190;28;19917;-66
2023/01/30 09:09:53;;;;;;;;;;;;;;;-0.32;89.24;97399.78;5028654;28;19932;-68
2023/01/30 09:12:18;;;;;;;;;;;;;;;-0.23;88.41;97408.88;5024915;28;19966;-67
2023/01/30 09:14:43;;;;;;;;;;;;;;;-0.18;89.47;97405.34;5031890;28;20387;-67
2023/01/30 09:17:09;;;;;;;;;;;;;;;-0.05;88.65;97405.53;5057238;28;20012;-67
2023/01/30 09:19:35;;;;;;;;;;;;;;;-0.14;88.34;97409.09;5026697;28;19921;-69
2023/01/30 09:22:01;;;;;;;;;;;;;;;-0.39;87.80;97414.34;5027198;28;19921;-68
2023/01/30 09:24:26;;;;;;;;;;;;;;;-0.44;88.88;97402.81;5024701;28;19971;-67
2023/01/30 09:26:53;;;;;;;;;;;;;;;-0.67;90.17;97398.88;5058876;28;20349;-67
2023/01/30 09:29:18;;;;;;;;;;;;;;;-0.57;90.01;97398.84;5055695;28;19921;-67
2023/01/30 09:31:43;;;;;;;;;;;;;;;-0.42;90.08;97401.44;5028426;28;20260;-68
2023/01/30 09:34:09;;;;;;;;;;;;;;;0.11;87.69;97406.22;5054204;28;19985;-68
2023/01/30 09:36:34;;;;;;;;;;;;;;;0.45;84.31;97413.50;5026298;28;19924;-68
2023/01/30 09:38:59;;;;;;;;;;;;;;;1.32;82.87;97426.03;5028285;28;19948;-68
2023/01/30 09:41:30;;;;;;;;;;;;;;;1.76;77.26;97417.94;5021526;28;19928;-68
2023/01/30 09:44:29;;;;;;;;;;;;;;;1.56;79.37;97427.13;5028262;28;19924;-69
2023/01/30 09:47:08;;;;;;;;;;;;;;;1.61;76.68;97408.16;4991797;28;19917;-68
2023/01/30 09:49:52;;;;;;;;;;;;;;;1.74;78.24;97412.03;5027708;28;19925;-67
2023/01/30 09:52:35;;;;;;;;;;;;;;;2.40;75.16;97418.31;5022165;28;19929;-67
2023/01/30 09:55:13;;;;;;;;;;;;;;;2.29;73.87;97409.56;5028087;28;19921;-67
2023/01/30 09:57:39;;;;;;;;;;;;;;;2.12;75.27;97395.78;5027095;28;19924;-68
2023/01/30 10:00:11;;;;;;;;;;;;;;;2.55;73.09;97396.41;5024001;28;19917;-67
2023/01/30 10:02:55;;;;;;;;;;;;;;;3.47;69.17;97390.34;5026036;28;20377;-68
2023/01/30 10:05:21;;;;;;;;;;;;;;;3.64;67.54;97396.75;5022041;28;19917;-66
2023/01/30 10:07:56;;;;;;;;;;;;;;;4.26;65.12;97397.25;5027012;28;19917;-69
2023/01/30 10:10:27;;;;;;;;;;;;;;;3.39;67.54;97379.13;5020545;28;19921;-68
2023/01/30 10:13:01;;;;;;;;;;;;;;;3.25;68.11;97373.72;5027159;28;19917;-68
2023/01/30 10:15:33;;;;;;;;;;;;;;;3.34;67.96;97365.69;5020718;28;19917;-68
2023/01/30 10:18:04;;;;;;;;;;;;;;;3.63;65.81;97378.88;5025104;28;20318;-67
2023/01/30 10:20:35;;;;;;;;;;;;;;;3.25;67.01;97375.63;5025954;28;19924;-67
2023/01/30 10:23:16;;;;;;;;;;;;;;;2.51;70.25;97375.69;5024903;28;20008;-68
2023/01/30 10:25:45;;;;;;;;;;;;;;;3.01;68.94;97370.44;5026437;28;19949;-68
2023/01/30 10:28:16;;;;;;;;;;;;;;;2.90;69.16;97375.25;5021894;28;19932;-68
2023/01/30 10:30:44;;;;;;;;;;;;;;;2.47;70.29;97367.38;5027010;28;19921;-66
2023/01/30 10:33:17;;;;;;;;;;;;;;;2.36;71.72;97382.16;5031647;28;19917;-67
2023/01/30 10:35:42;;;;;;;;;;;;;;;2.64;70.29;97372.19;5026580;28;19921;-67
2023/01/30 10:38:27;;;;;;;;;;;;;;;2.32;71.20;97373.81;5054710;28;19971;-66
2023/01/30 10:40:58;;;;;;;;;;;;;;;2.98;69.57;97371.03;5030383;28;19924;-67
2023/01/30 10:43:28;;;;;;;;;;;;;;;2.49;69.80;97365.97;5022674;28;20196;-67
2023/01/30 10:45:59;;;;;;;;;;;;;;;2.75;69.86;97364.69;5037353;28;19917;-67
2023/01/30 10:48:41;;;;;;;;;;;;;;;2.67;69.96;97356.19;5021518;28;19921;-67
2023/01/30 10:51:17;;;;;;;;;;;;;;;2.32;71.52;97346.00;5050582;28;19921;-67
2023/01/30 10:53:49;;;;;;;;;;;;;;;2.15;71.94;97317.63;5024663;28;20006;-67
2023/01/30 10:56:37;;;;;;;;;;;;;;;3.00;69.94;97293.03;5023756;28;19917;-67
2023/01/30 10:59:14;;;;;;;;;;;;;;;3.47;67.41;97282.81;5040851;28;19923;-68
2023/01/30 11:01:42;;;;;;;;;;;;;;;4.38;63.16;97287.09;5029752;28;19928;-67
2023/01/30 11:04:22;;;;;;;;;;;;;;;4.25;62.73;97300.72;5022823;28;19990;-66
2023/01/30 11:06:48;;;;;;;;;;;;;;;4.46;61.06;97290.16;5030474;28;19925;-67
2023/01/30 11:09:13;;;;;;;;;;;;;;;4.35;61.56;97285.00;5029111;28;20358;-66
2023/01/30 11:11:47;;;;;;;;;;;;;;;4.07;62.68;97286.25;5030161;28;19917;-68
2023/01/30 11:14:13;;;;;;;;;;;;;;;4.47;61.42;97279.00;5028455;28;19940;-68
2023/01/30 11:16:44;;;;;;;;;;;;;;;4.42;60.82;97273.69;5026132;28;19917;-68
2023/01/30 11:19:09;;;;;;;;;;;;;;;4.73;60.45;97265.50;5021606;28;19925;-66
2023/01/30 11:21:35;;;;;;;;;;;;;;;4.59;60.94;97251.25;5026850;28;19917;-68
2023/01/30 11:24:10;;;;;;;;;;;;;;;4.19;60.79;97234.97;5036048;28;19927;-69
2023/01/30 11:26:36;;;;;;;;;;;;;;;4.22;61.12;97242.50;5064282;28;20412;-67
2023/01/30 11:29:36;;;;;;;;;;;;;;;4.48;61.07;97237.19;5060805;28;19920;-67
2023/01/30 11:32:02;;;;;;;;;;;;;;;3.85;61.34;97239.09;5021176;28;20343;-66
2023/01/30 11:34:28;;;;;;;;;;;;;;;4.19;60.99;97233.06;5043608;28;19927;-67
2023/01/30 11:37:10;;;;;;;;;;;;;;;4.21;60.74;97239.00;5059896;28;20353;-67
2023/01/30 11:39:36;;;;;;;;;;;;;;;4.33;59.93;97235.69;5027271;28;20368;-67
2023/01/30 11:42:03;;;;;;;;;;;;;;;4.18;60.36;97226.06;5026538;28;19964;-68
2023/01/30 11:44:31;;;;;;;;;;;;;;;3.88;61.20;97233.06;5028214;28;19921;-67
2023/01/30 11:46:58;;;;;;;;;;;;;;;3.98;61.07;97232.81;5049191;28;19960;-67
2023/01/30 11:49:27;;;;;;;;;;;;;;;4.42;60.07;97233.00;5045490;28;19920;-67
2023/01/30 11:51:53;;;;;;;;;;;;;;;4.57;59.27;97229.06;5049204;28;19916;-67
2023/01/30 11:54:20;;;;;;;;;;;;;;;4.40;60.13;97232.53;5025537;28;20259;-67
2023/01/30 11:56:50;;;;;;;;;;;;;;;4.53;59.97;97233.53;5063983;28;20366;-67
2023/01/30 11:59:36;;;;;;;;;;;;;;;4.82;60.02;97222.13;5046962;28;19917;-67
2023/01/30 12:02:21;;;;;;;;;;;;;;;5.53;58.13;97221.88;5050204;28;19921;-67
2023/01/30 12:04:50;;;;;;;;;;;;;;;6.18;55.30;97218.41;5039239;28;19978;-67
2023/01/30 12:07:18;;;;;;;;;;;;;;;6.61;54.27;97231.03;5043959;28;19921;-68
2023/01/30 12:09:44;;;;;;;;;;;;;;;6.27;53.85;97219.97;5048981;28;19921;-68
2023/01/30 12:12:27;;;;;;;;;;;;;;;5.56;56.53;97206.81;5054272;28;19928;-67
2023/01/30 12:14:58;;;;;;;;;;;;;;;5.10;57.94;97197.41;5053449;28;19917;-70
2023/01/30 12:17:32;;;;;;;;;;;;;;;4.43;60.45;97185.00;5049417;28;20819;-68
2023/01/30 12:20:04;;;;;;;;;;;;;;;4.11;62.19;97190.47;5054161;28;19931;-67
2023/01/30 12:22:32;;;;;;;;;;;;;;;3.92;63.02;97204.22;5034098;28;20389;-68
2023/01/30 12:24:59;;;;;;;;;;;;;;;4.19;63.01;97208.66;5047682;28;19927;-69
2023/01/30 12:27:36;;;;;;;;;;;;;;;4.16;62.60;97214.72;5044071;28;20081;-67
2023/01/30 12:30:01;;;;;;;;;;;;;;;3.80;64.37;97199.41;5028394;28;19976;-68
2023/01/30 12:32:29;;;;;;;;;;;;;;;3.43;65.47;97203.28;5012168;28;20004;-68
2023/01/30 12:34:55;;;;;;;;;;;;;;;3.28;66.50;97209.06;5048569;28;19916;-67
2023/01/30 12:37:29;;;;;;;;;;;;;;;3.64;66.51;97207.09;5041932;28;20358;-67
2023/01/30 12:40:02;;;;;;;;;;;;;;;3.44;67.07;97199.50;5030207;28;20389;-67
2023/01/30 12:42:53;;;;;;;;;;;;;;;3.62;66.49;97197.69;5025203;28;20012;-68
2023/01/30 12:45:23;;;;;;;;;;;;;;;3.21;67.63;97177.81;5023639;28;19924;-68
2023/01/30 12:48:07;;;;;;;;;;;;;;;3.25;68.07;97175.28;5028144;28;19917;-68
2023/01/30 12:50:32;;;;;;;;;;;;;;;3.25;68.57;97165.25;5059044;28;19921;-68
2023/01/30 12:53:12;;;;;;;;;;;;;;;3.31;68.61;97173.25;5028670;28;19917;-68